map of SNZ home
SNZ - Airport
Location
City:  Rio de Janeiro, Rio de Janeiro, Brazil
Name:Santa Cruz AFB
Old (Alt.):Bartolomeu de Gusmão Airport
ICAO:SBSC
IATA:SNZ

Details
Type:Airport (Aerodrome, Airfield)
Use:Military
Latitude:22°55'56"S (-22.932349)
Longitude:43°43'09"W (-43.719091)
Datum:WGS 1984
Elevation:10 ft (3 m)
Variation:22.59°W (WMM2015 magnetic declination)
-0.10° annual change
Runways:1
Longest:8986 × 148 ft (2739 × 45 m), paved

Time
Time Zone:UTC-3 (DST-2)
Local Time:

Weather
METAR:SBSC 152000Z 21009KT 9999 SCT025 FEW030TCU 26/22 Q1011
TAF:SBSC 151400Z 1518/1606 17015KT 9999 FEW030 TX32/1518Z TN23/1606Z
BECMG 1521/1523 20010KT
BECMG 1600/1603 34005KT FEW020
RMK PHC

Related Locations
Nearby:
Farthest:IWO: 12101 mi / 19475 km
Iwo Jima [Iwo Jima AB], Iwo Jima Island, 13, JP

Find:

   beyond  
but within

Other Information
Maps:
NOTAMs:
Links:
Sources:

  
flag of Brazil
flag of Rio de Janeiro
flag of Rio de Janeiro
  

Sectional Chart

Flight Planning
at skyvector.com

Satellite Image

Google Maps Satellite view

 

Copyright © 2004-2017 Karl L. Swartz. All rights reserved.
The Great Circle Mapper name and logo are trademarks of the Great Circle Mapper.
All other trademarks mentioned herein belong to their respective owners.
Please see credits for attibutions and further copyright information.

  Follow gcmap on Facebook Follow gcmap on Twitter Follow gcmap on Google+ GCmap on LinkedIn

hCard Microformat

Geo Microformat